Miami, FL (33186)

5:38 AM EDT on July 23, 2016 (GMT -0400)
The Hammocks, FL (West Kendall - Miami) | | Change Station

Elev 6 ft 25.67 °N, 80.44 °W | Updated 46 seconds ago

Clear
Clear
73.8 °F
Feels Like 73.8 °F
N
0.0
Wind Variable Wind from North
Gusts 0.0 mph

Today
High -- | Low -- °F
--% Chance of Precip.
Yesterday
High -- | Low -- °F
Precip. -- in
Pressure 30.01 in
Visibility 10.0 miles
Clouds Clear
Dew Point 73 °F
Humidity 98%
Rainfall Not available.
Snow Depth Not available.
6:44 AM 8:12 PM
Waning Gibbous, 86% visible
METAR KTMB 230853Z AUTO 00000KT 10SM CLR 22/22 A3002 RMK AO2 SLP163 T02220222 55005 TSNO $
Pressure 30.01 in
Visibility 10.0 miles
Clouds Clear
Dew Point 73 °F
Humidity 98%
Rainfall Not available.
Snow Depth Not available.
6:44 AM 8:12 PM
Waning Gibbous, 86% visible
METAR KTMB 230853Z AUTO 00000KT 10SM CLR 22/22 A3002 RMK AO2 SLP163 T02220222 55005 TSNO $

10-Day Weather Forecast

Almanac

Astronomy

Jul. 23, 2016 Rise Set
Actual Time
Civil Twilight
Nautical Twilight
Astronomical Twilight
Moon
Length of Visible Light
Length of Day
Tomorrow will be .
, % of the Moon is Illuminated

Today's Extremes

State Highs State Lows

Community

WunderPhotos

Upload Photos

1,926,790 photos uploaded!

WunderBlog® & News

Nearby

Air Quality

  Air Quality AQ Index Pollutant
Not available.

Snow Depth

Station Depth Elevation

Earthquake Activity

City Distance Mag. Time & Date
Minimum magnitude displayed is 2.5.

Coastal Water Temperatures

Place Temperature

Stations

Nearby Weather Stations

Station Location Temp. Windchill Dew Point Humidity Wind Precip. Elev Updated Type
                   

Watches & Warnings

There are currently no watches in effect.